Time;durP1;ratioP1;P1;durP2;ratioP2;P2;SDS_P1;SDS_P2;PMS_P1;PMS_P2;Temp;Humidity;BMP_temperature;BMP_pressure;BME280_temperature;BME280_humidity;BME280_pressure;Samples;Min_cycle;Max_cycle;Signal;HPM_P1;HPM_P2
2022/05/19 00:01:28;;;;;;;14.00;6.83;;;18.70;99.90;;;;;;5017409;28;20477;-71
2022/05/19 00:03:56;;;;;;;11.50;7.10;;;18.60;99.90;;;;;;5033741;28;20432;-71
2022/05/19 00:06:23;;;;;;;12.13;6.90;;;18.50;99.90;;;;;;5016579;28;20491;-71
2022/05/19 00:08:49;;;;;;;7.10;6.40;;;18.50;99.90;;;;;;5018085;28;20449;-71
2022/05/19 00:11:19;;;;;;;11.40;7.70;;;18.40;99.90;;;;;;5033877;28;20992;-71
2022/05/19 00:13:45;;;;;;;9.93;6.37;;;18.40;99.90;;;;;;5040014;28;20427;-71
2022/05/19 00:16:12;;;;;;;8.67;6.83;;;18.30;99.90;;;;;;5037063;28;20926;-71
2022/05/19 00:18:39;;;;;;;7.67;6.33;;;18.20;99.90;;;;;;5033811;28;21099;-71
2022/05/19 00:21:07;;;;;;;11.00;7.23;;;18.20;99.90;;;;;;5033926;28;20452;-71
2022/05/19 00:23:34;;;;;;;11.93;7.40;;;18.10;99.90;;;;;;5014952;28;20451;-71
2022/05/19 00:26:00;;;;;;;8.47;7.13;;;18.10;99.90;;;;;;5030482;28;20458;-71
2022/05/19 00:28:27;;;;;;;15.60;6.80;;;18.00;99.90;;;;;;5032526;28;20454;-71
2022/05/19 00:30:54;;;;;;;11.03;7.20;;;18.00;99.90;;;;;;5014006;28;20994;-70
2022/05/19 00:33:20;;;;;;;8.83;7.20;;;17.90;99.90;;;;;;5014069;28;20450;-71
2022/05/19 00:35:47;;;;;;;8.60;7.30;;;17.90;99.90;;;;;;5014493;28;20450;-71
2022/05/19 00:38:15;;;;;;;11.73;8.40;;;17.80;99.90;;;;;;5014192;28;20593;-71
2022/05/19 00:40:46;;;;;;;8.60;7.17;;;17.80;99.90;;;;;;5033205;28;20957;-71
2022/05/19 00:43:13;;;;;;;9.63;7.43;;;17.60;99.90;;;;;;5032749;28;20481;-71
2022/05/19 00:45:51;;;;;;;16.40;8.50;;;17.60;99.90;;;;;;5033541;28;21056;-71
2022/05/19 00:48:23;;;;;;;14.40;8.90;;;17.50;99.90;;;;;;5032281;28;20468;-71
2022/05/19 00:50:54;;;;;;;16.47;8.07;;;17.50;99.90;;;;;;5012920;28;20486;-71
2022/05/19 00:53:29;;;;;;;11.27;7.50;;;17.50;99.90;;;;;;5020814;28;20428;-71
2022/05/19 00:55:59;;;;;;;9.50;7.17;;;17.50;99.90;;;;;;5032707;28;20957;-71
2022/05/19 00:58:33;;;;;;;7.67;6.40;;;17.50;99.90;;;;;;5031556;28;20474;-71
2022/05/19 01:00:59;;;;;;;7.67;6.93;;;17.40;99.90;;;;;;5013922;28;20429;-71
2022/05/19 01:03:31;;;;;;;15.37;7.37;;;17.40;99.90;;;;;;5013206;28;20503;-71
2022/05/19 01:06:02;;;;;;;11.40;6.77;;;17.40;99.90;;;;;;5018009;28;20428;-71
2022/05/19 01:08:34;;;;;;;10.23;6.80;;;17.40;99.90;;;;;;5033617;28;20489;-71
2022/05/19 01:11:02;;;;;;;10.53;7.70;;;17.30;99.90;;;;;;5027386;28;20493;-71
2022/05/19 01:13:31;;;;;;;14.43;8.00;;;17.30;99.90;;;;;;5032510;28;20485;-71
2022/05/19 01:16:00;;;;;;;12.13;7.90;;;17.30;99.90;;;;;;5023102;28;20531;-71
2022/05/19 01:18:28;;;;;;;8.77;7.57;;;17.30;99.90;;;;;;5017478;28;20425;-71
2022/05/19 01:20:56;;;;;;;11.17;7.70;;;17.30;99.90;;;;;;5026325;28;20457;-71
2022/05/19 01:23:32;;;;;;;8.37;7.40;;;17.30;99.90;;;;;;5052388;28;20530;-71
2022/05/19 01:26:09;;;;;;;9.47;7.17;;;17.30;99.90;;;;;;5040545;28;20503;-71
2022/05/19 01:28:37;;;;;;;13.63;7.60;;;17.20;99.90;;;;;;5016396;28;20436;-71
2022/05/19 01:31:04;;;;;;;15.13;7.60;;;17.10;99.90;;;;;;5012888;28;20885;-71
2022/05/19 01:33:31;;;;;;;9.97;7.17;;;17.10;99.90;;;;;;5025279;28;20457;-71
2022/05/19 01:35:58;;;;;;;10.30;6.90;;;17.10;99.90;;;;;;5032189;28;20457;-71
2022/05/19 01:38:29;;;;;;;9.23;7.17;;;17.10;99.90;;;;;;5028760;28;20428;-71
2022/05/19 01:41:07;;;;;;;7.40;6.50;;;17.00;99.90;;;;;;5028995;28;20424;-71
2022/05/19 01:43:42;;;;;;;8.63;7.00;;;17.10;99.90;;;;;;5012511;28;20541;-71
2022/05/19 01:46:16;;;;;;;10.60;7.67;;;17.00;99.90;;;;;;5027487;28;20940;-71
2022/05/19 01:48:49;;;;;;;9.20;7.80;;;17.00;99.90;;;;;;5025479;28;20461;-71
2022/05/19 01:51:23;;;;;;;9.30;7.03;;;17.00;99.90;;;;;;5016868;28;20976;-71
2022/05/19 01:53:59;;;;;;;7.97;7.17;;;17.00;99.90;;;;;;5031063;28;20451;-71
2022/05/19 01:56:30;;;;;;;7.90;7.10;;;16.90;99.90;;;;;;5027137;28;20504;-71
2022/05/19 01:59:08;;;;;;;7.70;6.50;;;16.90;99.90;;;;;;5018923;28;20428;-71
2022/05/19 02:01:34;;;;;;;8.80;6.93;;;16.90;99.90;;;;;;5032230;28;20511;-71
2022/05/19 02:04:08;;;;;;;13.20;7.60;;;16.90;99.90;;;;;;5031288;28;20498;-71
2022/05/19 02:06:39;;;;;;;7.90;7.20;;;16.80;99.90;;;;;;5024882;28;20433;-71
2022/05/19 02:09:10;;;;;;;10.33;7.43;;;16.80;99.90;;;;;;5024781;28;20416;-71
2022/05/19 02:11:42;;;;;;;11.13;8.27;;;16.80;99.90;;;;;;5031707;28;20545;-71
2022/05/19 02:14:15;;;;;;;9.20;7.13;;;16.80;99.90;;;;;;5040438;28;20945;-71
2022/05/19 02:16:43;;;;;;;10.83;7.30;;;16.80;99.90;;;;;;5043520;28;20844;-71
2022/05/19 02:19:12;;;;;;;11.13;7.03;;;16.70;99.90;;;;;;5018989;28;20513;-71
2022/05/19 02:21:40;;;;;;;7.83;6.97;;;16.70;99.90;;;;;;5026467;28;20538;-71
2022/05/19 02:24:10;;;;;;;8.80;7.13;;;16.70;99.90;;;;;;5026922;28;20514;-71
2022/05/19 02:26:40;;;;;;;9.20;7.33;;;16.60;99.90;;;;;;5018756;28;20928;-71
2022/05/19 02:29:13;;;;;;;7.57;6.67;;;16.60;99.90;;;;;;5031724;28;20461;-71
2022/05/19 02:31:42;;;;;;;10.87;7.90;;;16.60;99.90;;;;;;5031728;28;20456;-71
2022/05/19 02:34:10;;;;;;;9.10;8.00;;;16.50;99.90;;;;;;5030552;28;20439;-71
2022/05/19 02:36:36;;;;;;;8.93;7.87;;;16.50;99.90;;;;;;5023328;28;20467;-71
2022/05/19 02:39:03;;;;;;;11.67;8.43;;;16.40;99.90;;;;;;5014952;28;20436;-71
2022/05/19 02:41:30;;;;;;;11.10;7.80;;;16.40;99.90;;;;;;5030976;28;20440;-71
2022/05/19 02:43:57;;;;;;;9.50;7.63;;;16.40;99.90;;;;;;5031113;28;20457;-71
2022/05/19 02:46:25;;;;;;;11.80;8.50;;;16.40;99.90;;;;;;5024889;28;20429;-71
2022/05/19 02:48:52;;;;;;;11.47;8.60;;;16.40;99.90;;;;;;5011844;28;20432;-71
2022/05/19 02:51:19;;;;;;;10.83;7.80;;;16.40;99.90;;;;;;5010809;28;20990;-72
2022/05/19 02:53:45;;;;;;;12.23;8.63;;;16.40;99.90;;;;;;5012324;28;20499;-72
2022/05/19 02:56:12;;;;;;;7.80;7.07;;;16.30;99.90;;;;;;5030067;28;20490;-72
2022/05/19 02:58:38;;;;;;;8.60;7.67;;;16.30;99.90;;;;;;5031400;28;20951;-71
2022/05/19 03:01:08;;;;;;;8.93;8.00;;;16.30;99.90;;;;;;5031354;28;20420;-72
2022/05/19 03:03:36;;;;;;;16.13;8.90;;;16.20;99.90;;;;;;5031022;28;20487;-72
2022/05/19 03:06:03;;;;;;;16.70;8.97;;;16.20;99.90;;;;;;5026783;28;20978;-72
2022/05/19 03:08:30;;;;;;;13.40;8.70;;;16.20;99.90;;;;;;5011997;28;20432;-72
2022/05/19 03:10:56;;;;;;;18.97;10.20;;;16.20;99.90;;;;;;5030729;28;20848;-72
2022/05/19 03:13:24;;;;;;;19.73;9.50;;;16.20;99.90;;;;;;5016208;28;20518;-72
2022/05/19 03:15:51;;;;;;;14.40;10.70;;;16.10;99.90;;;;;;5012602;28;20814;-72
2022/05/19 03:18:17;;;;;;;15.63;10.77;;;16.10;99.90;;;;;;5029246;28;20457;-71
2022/05/19 03:20:46;;;;;;;15.67;9.70;;;16.10;99.90;;;;;;5031518;28;20450;-71
2022/05/19 03:23:12;;;;;;;14.63;10.10;;;16.00;99.90;;;;;;5033427;28;20448;-70
2022/05/19 03:25:39;;;;;;;12.37;9.23;;;16.00;99.90;;;;;;5019194;28;20429;-72
2022/05/19 03:28:06;;;;;;;15.40;9.10;;;16.00;99.90;;;;;;5016606;28;20425;-72
2022/05/19 03:30:33;;;;;;;13.70;9.83;;;16.00;99.90;;;;;;5015219;28;20450;-71
2022/05/19 03:32:59;;;;;;;16.20;9.30;;;16.00;99.90;;;;;;5019412;28;20550;-71
2022/05/19 03:35:26;;;;;;;14.77;9.00;;;16.00;99.90;;;;;;5014968;28;20954;-72
2022/05/19 03:37:54;;;;;;;17.73;9.37;;;16.00;99.90;;;;;;5032371;28;20440;-71
2022/05/19 03:40:21;;;;;;;26.00;10.80;;;16.00;99.90;;;;;;5035015;28;21088;-70
2022/05/19 03:42:47;;;;;;;20.33;10.97;;;16.00;99.90;;;;;;5034088;28;20439;-70
2022/05/19 03:45:14;;;;;;;15.20;10.93;;;16.00;99.90;;;;;;5021248;28;20523;-70
2022/05/19 03:47:41;;;;;;;18.70;10.40;;;16.00;99.90;;;;;;5034468;28;20428;-69
2022/05/19 03:50:08;;;;;;;24.13;11.07;;;15.90;99.90;;;;;;5021595;28;20454;-71
2022/05/19 03:52:38;;;;;;;13.80;9.77;;;16.00;99.90;;;;;;5029742;28;20538;-71
2022/05/19 03:55:07;;;;;;;14.17;9.73;;;16.00;99.90;;;;;;5031824;28;20461;-69
2022/05/19 03:57:34;;;;;;;18.60;9.03;;;16.00;99.90;;;;;;5035317;28;20424;-69
2022/05/19 04:00:00;;;;;;;14.50;9.47;;;16.00;99.90;;;;;;5034601;28;20429;-70
2022/05/19 04:02:27;;;;;;;15.37;8.60;;;16.00;99.90;;;;;;5034037;28;20498;-69
2022/05/19 04:04:54;;;;;;;11.33;8.77;;;16.00;99.90;;;;;;5042182;28;20435;-69
2022/05/19 04:07:20;;;;;;;12.30;9.03;;;16.00;99.90;;;;;;5021488;28;20897;-70
2022/05/19 04:09:47;;;;;;;11.00;8.97;;;16.00;99.90;;;;;;5014486;28;20958;-69
2022/05/19 04:12:19;;;;;;;9.53;8.53;;;16.10;99.90;;;;;;5014745;28;20548;-70
2022/05/19 04:14:46;;;;;;;10.40;8.10;;;16.10;99.90;;;;;;5014513;28;20843;-69
2022/05/19 04:17:12;;;;;;;10.17;8.57;;;16.20;99.90;;;;;;5021238;28;20950;-71
2022/05/19 04:19:39;;;;;;;13.83;7.93;;;16.10;99.90;;;;;;5029486;28;20453;-70
2022/05/19 04:22:05;;;;;;;10.67;8.50;;;16.20;99.90;;;;;;5033454;28;20500;-70
2022/05/19 04:24:32;;;;;;;10.20;7.60;;;16.20;99.90;;;;;;5032465;28;20570;-70
2022/05/19 04:26:59;;;;;;;14.90;8.53;;;16.20;99.90;;;;;;5024597;28;20428;-70
2022/05/19 04:29:27;;;;;;;11.60;8.70;;;16.30;99.90;;;;;;5034133;28;20819;-71
2022/05/19 04:31:54;;;;;;;11.30;8.60;;;16.30;99.90;;;;;;5024212;28;20444;-73
2022/05/19 04:34:20;;;;;;;9.70;7.50;;;16.40;99.90;;;;;;5034371;28;20423;-73
2022/05/19 04:36:47;;;;;;;12.63;9.00;;;16.40;99.90;;;;;;5040915;28;20449;-72
2022/05/19 04:39:14;;;;;;;9.33;8.33;;;16.50;99.90;;;;;;5029352;28;20429;-72
2022/05/19 04:41:41;;;;;;;10.63;8.50;;;16.50;99.90;;;;;;5036067;28;20883;-72
2022/05/19 04:44:07;;;;;;;10.38;7.00;;;16.50;99.90;;;;;;5030678;28;20445;-74
2022/05/19 04:46:35;;;;;;;7.83;6.83;;;16.60;99.90;;;;;;5022306;28;20227;-74
2022/05/19 04:49:02;;;;;;;7.80;7.00;;;16.70;99.90;;;;;;5024173;28;20498;-74
2022/05/19 04:51:29;;;;;;;10.50;7.07;;;16.70;99.90;;;;;;5015344;28;20469;-74
2022/05/19 04:53:55;;;;;;;10.43;7.37;;;16.70;99.90;;;;;;5013039;28;20486;-74
2022/05/19 04:56:22;;;;;;;15.20;7.83;;;16.80;99.90;;;;;;5020369;28;20894;-74
2022/05/19 04:58:49;;;;;;;11.43;6.90;;;16.80;99.90;;;;;;5032016;28;20445;-74
2022/05/19 05:01:15;;;;;;;12.60;7.60;;;16.80;99.90;;;;;;5025774;28;20223;-74
2022/05/19 05:03:43;;;;;;;22.03;7.20;;;16.80;99.90;;;;;;5013261;28;20421;-74
2022/05/19 05:06:10;;;;;;;13.80;6.90;;;16.90;99.90;;;;;;5012876;28;20425;-74
2022/05/19 05:08:36;;;;;;;8.70;6.80;;;16.90;99.90;;;;;;5013776;28;20421;-74
2022/05/19 05:11:03;;;;;;;15.27;7.43;;;16.90;99.90;;;;;;5013377;28;20516;-74
2022/05/19 05:13:30;;;;;;;11.43;6.90;;;16.90;99.90;;;;;;5011552;28;20494;-74
2022/05/19 05:15:58;;;;;;;10.03;6.57;;;17.00;99.90;;;;;;5011744;28;20429;-74
2022/05/19 05:18:25;;;;;;;10.50;6.50;;;17.10;99.90;;;;;;5012932;28;20433;-74
2022/05/19 05:20:53;;;;;;;16.93;7.77;;;17.30;99.90;;;;;;5013046;28;20512;-72
2022/05/19 05:23:19;;;;;;;13.77;6.77;;;17.40;99.90;;;;;;5012247;28;20449;-73
2022/05/19 05:25:46;;;;;;;9.90;7.27;;;17.50;99.90;;;;;;5013028;28;20482;-72
2022/05/19 05:28:12;;;;;;;11.27;7.20;;;17.60;99.90;;;;;;5012780;28;20421;-73
2022/05/19 05:30:39;;;;;;;8.17;6.90;;;17.70;99.90;;;;;;5012692;28;20456;-73
2022/05/19 05:33:08;;;;;;;9.83;7.20;;;17.90;99.90;;;;;;5012677;28;20530;-73
2022/05/19 05:35:35;;;;;;;12.83;7.77;;;18.10;99.90;;;;;;5012594;28;20935;-73
2022/05/19 05:38:04;;;;;;;8.47;7.57;;;18.30;99.90;;;;;;5012633;28;20922;-73
2022/05/19 05:40:30;;;;;;;13.30;8.30;;;18.30;99.90;;;;;;5012629;28;20489;-73
2022/05/19 05:43:04;;;;;;;14.80;8.97;;;18.30;99.90;;;;;;5012229;28;20441;-73
2022/05/19 05:45:30;;;;;;;11.20;8.10;;;18.40;99.90;;;;;;5011649;28;20519;-73
2022/05/19 05:47:57;;;;;;;12.60;7.63;;;18.50;99.90;;;;;;5013682;28;20512;-73
2022/05/19 05:50:24;;;;;;;14.17;8.43;;;18.70;99.90;;;;;;5032231;28;20424;-73
2022/05/19 05:52:51;;;;;;;8.03;6.83;;;18.80;99.90;;;;;;5032206;28;20535;-73
2022/05/19 05:55:19;;;;;;;10.27;6.07;;;18.90;99.90;;;;;;5031626;28;20920;-73
2022/05/19 05:57:45;;;;;;;6.43;4.97;;;18.90;99.90;;;;;;5032022;28;20453;-73
2022/05/19 06:00:13;;;;;;;4.53;4.13;;;19.00;99.90;;;;;;5032304;28;20420;-73
2022/05/19 06:02:41;;;;;;;9.30;4.83;;;19.10;99.90;;;;;;5032211;28;20486;-73
2022/05/19 06:05:08;;;;;;;9.00;4.53;;;19.20;99.90;;;;;;5031775;28;20416;-73
2022/05/19 06:07:35;;;;;;;5.50;3.93;;;19.30;99.90;;;;;;5031675;28;20833;-73
2022/05/19 06:10:01;;;;;;;7.77;4.47;;;19.40;99.90;;;;;;5030900;28;20461;-73
2022/05/19 06:12:29;;;;;;;10.93;4.70;;;19.50;99.90;;;;;;5031536;28;20471;-73
2022/05/19 06:14:56;;;;;;;13.80;4.90;;;19.60;99.90;;;;;;5031797;28;20498;-73
2022/05/19 06:17:23;;;;;;;4.77;4.00;;;19.70;99.90;;;;;;5031766;28;20438;-73
2022/05/19 06:19:50;;;;;;;6.43;4.23;;;19.90;99.90;;;;;;5031809;28;20528;-73
2022/05/19 06:22:17;;;;;;;12.53;4.50;;;19.90;99.90;;;;;;5031807;28;20483;-73
2022/05/19 06:24:44;;;;;;;4.50;4.10;;;20.10;99.90;;;;;;5031439;28;20457;-73
2022/05/19 06:27:11;;;;;;;11.60;4.80;;;20.10;99.90;;;;;;5031773;28;20503;-73
2022/05/19 06:29:39;;;;;;;6.50;4.30;;;20.30;99.90;;;;;;5031665;28;20445;-73
2022/05/19 06:32:06;;;;;;;4.67;3.97;;;20.30;99.90;;;;;;5031774;28;20465;-73
2022/05/19 06:34:33;;;;;;;5.00;4.50;;;20.30;99.90;;;;;;5030931;28;20467;-73
2022/05/19 06:37:00;;;;;;;5.97;4.70;;;20.30;99.90;;;;;;5032013;28;20499;-72
2022/05/19 06:39:27;;;;;;;9.80;4.83;;;20.40;99.90;;;;;;5031565;28;20420;-72
2022/05/19 06:42:02;;;;;;;4.70;4.30;;;20.50;99.90;;;;;;5032254;28;20473;-73
2022/05/19 06:44:31;;;;;;;7.33;4.90;;;20.60;99.90;;;;;;5031042;28;20456;-73
2022/05/19 06:47:00;;;;;;;9.30;4.23;;;20.70;99.90;;;;;;5031634;28;20835;-73
2022/05/19 06:49:27;;;;;;;4.57;4.17;;;20.60;99.90;;;;;;5031422;28;20820;-73
2022/05/19 06:51:54;;;;;;;4.50;4.10;;;20.70;99.90;;;;;;5031451;28;20564;-73
2022/05/19 06:54:21;;;;;;;4.37;3.97;;;20.90;99.90;;;;;;5030723;28;21100;-73
2022/05/19 06:56:48;;;;;;;6.13;3.90;;;21.00;99.90;;;;;;5031398;28;20480;-73
2022/05/19 06:59:16;;;;;;;7.43;3.70;;;21.20;99.90;;;;;;5031020;28;20457;-73
2022/05/19 07:01:43;;;;;;;5.47;3.63;;;21.40;99.90;;;;;;5030922;28;20473;-73
2022/05/19 07:04:11;;;;;;;5.20;4.03;;;21.60;99.90;;;;;;5030759;28;20865;-73
2022/05/19 07:06:38;;;;;;;7.30;2.90;;;21.50;99.90;;;;;;5030912;28;20461;-72
2022/05/19 07:09:05;;;;;;;4.30;3.80;;;21.40;99.90;;;;;;5029879;28;20453;-73
2022/05/19 07:11:31;;;;;;;5.83;3.60;;;21.30;99.90;;;;;;5030985;28;20473;-73
2022/05/19 07:14:01;;;;;;;4.87;3.50;;;21.20;99.90;;;;;;5029661;28;20493;-73
2022/05/19 07:16:28;;;;;;;5.00;3.23;;;21.30;99.90;;;;;;5029955;28;20484;-73
2022/05/19 07:20:43;;;;;;;4.53;3.40;;;21.50;99.90;;;;;;5031120;28;20484;-73
2022/05/19 07:21:44;;;;;;;3.70;3.37;;;21.60;99.90;;;;;;5030723;28;20465;-73
2022/05/19 07:24:16;;;;;;;10.10;3.30;;;21.70;99.90;;;;;;5030106;28;20544;-73
2022/05/19 07:26:43;;;;;;;4.77;3.80;;;21.80;99.90;;;;;;5031311;28;20544;-73
2022/05/19 07:29:09;;;;;;;3.57;3.27;;;21.80;99.90;;;;;;5030989;28;20449;-73
2022/05/19 07:31:37;;;;;;;4.87;3.70;;;21.90;99.90;;;;;;5030867;28;20523;-73
2022/05/19 07:34:04;;;;;;;7.23;3.70;;;21.90;99.90;;;;;;5030338;28;20503;-73
2022/05/19 07:36:31;;;;;;;4.00;3.40;;;22.00;99.90;;;;;;5030841;28;20803;-73
2022/05/19 07:39:00;;;;;;;4.77;3.10;;;21.90;99.90;;;;;;5030411;28;20962;-73
2022/05/19 07:41:27;;;;;;;5.33;3.33;;;22.00;99.90;;;;;;5030894;28;20508;-72
2022/05/19 07:43:55;;;;;;;3.13;2.80;;;21.90;99.90;;;;;;5030399;28;20449;-73
2022/05/19 07:46:22;;;;;;;4.13;3.53;;;21.90;99.90;;;;;;5030664;28;20458;-73
2022/05/19 07:48:49;;;;;;;3.90;3.60;;;22.00;99.90;;;;;;5030890;28;20449;-73
2022/05/19 07:51:16;;;;;;;3.43;3.10;;;22.00;99.90;;;;;;5030207;28;20505;-73
2022/05/19 07:53:43;;;;;;;3.90;3.30;;;22.10;99.90;;;;;;5030200;28;20481;-73
2022/05/19 07:56:11;;;;;;;3.57;2.73;;;22.20;99.90;;;;;;5030632;28;20454;-73
2022/05/19 07:58:37;;;;;;;4.53;3.10;;;22.20;99.90;;;;;;5030741;28;20449;-73
2022/05/19 08:01:04;;;;;;;3.43;3.10;;;22.40;99.90;;;;;;5030287;28;20872;-73
2022/05/19 08:03:31;;;;;;;5.93;3.20;;;22.30;99.90;;;;;;5030046;28;20503;-73
2022/05/19 08:05:57;;;;;;;5.80;3.33;;;22.30;99.90;;;;;;5030078;28;20445;-73
2022/05/19 08:08:24;;;;;;;5.37;3.03;;;22.30;99.90;;;;;;5032144;28;20445;-73
2022/05/19 08:10:52;;;;;;;4.53;2.77;;;22.10;99.90;;;;;;5034306;28;20875;-73
2022/05/19 08:16:05;;;;;;;5.50;2.93;;;22.20;99.90;;;;;;5033224;28;21478;-73
2022/05/19 08:18:33;;;;;;;3.53;3.23;;;22.40;99.90;;;;;;5034464;28;20498;-73
2022/05/19 08:21:03;;;;;;;3.90;3.17;;;22.50;99.90;;;;;;5034200;28;20461;-72
2022/05/19 08:23:31;;;;;;;3.77;3.07;;;22.60;99.90;;;;;;5033682;28;21001;-73
2022/05/19 08:26:00;;;;;;;3.20;2.90;;;22.70;99.90;;;;;;5033980;28;20964;-73
2022/05/19 08:28:29;;;;;;;5.37;3.30;;;22.80;99.90;;;;;;5033949;28;20499;-73
2022/05/19 08:30:58;;;;;;;9.07;3.40;;;22.90;99.90;;;;;;5034103;28;20617;-73
2022/05/19 08:33:26;;;;;;;9.83;3.43;;;23.00;99.90;;;;;;5033527;28;20587;-73
2022/05/19 08:35:52;;;;;;;3.40;2.67;;;23.10;99.90;;;;;;5034010;28;20877;-73
2022/05/19 08:38:20;;;;;;;7.83;3.23;;;23.40;99.90;;;;;;5034154;28;20511;-73
2022/05/19 08:40:51;;;;;;;3.63;2.70;;;23.50;99.90;;;;;;5033679;28;20511;-73
2022/05/19 08:43:20;;;;;;;5.93;3.10;;;23.50;99.90;;;;;;5033273;28;21009;-73
2022/05/19 08:45:51;;;;;;;6.30;4.07;;;23.50;99.90;;;;;;5033840;28;20946;-73
2022/05/19 08:48:20;;;;;;;4.97;3.10;;;23.50;99.90;;;;;;5034014;28;20480;-73
2022/05/19 08:50:51;;;;;;;8.60;2.70;;;23.40;99.90;;;;;;5034169;28;20540;-72
2022/05/19 08:53:18;;;;;;;4.83;2.83;;;23.40;99.90;;;;;;5032987;28;20539;-73
2022/05/19 08:55:49;;;;;;;6.30;3.07;;;23.40;99.90;;;;;;5033667;28;20510;-73
2022/05/19 08:58:49;;;;;;;9.13;3.10;;;23.50;99.90;;;;;;5033576;28;20442;-73
2022/05/19 09:01:25;;;;;;;9.03;3.40;;;23.70;99.90;;;;;;4979899;28;21809;-73
2022/05/19 09:04:02;;;;;;;6.57;3.30;;;23.90;99.90;;;;;;5032766;28;20554;-72
2022/05/19 09:07:56;;;;;;;10.97;3.50;;;24.00;99.90;;;;;;5033271;28;20446;-73
2022/05/19 09:09:43;;;;;;;4.33;3.50;;;24.30;99.90;;;;;;5033275;28;20810;-73
2022/05/19 09:12:12;;;;;;;11.10;3.70;;;24.50;99.90;;;;;;5032694;28;20539;-73
2022/05/19 09:14:40;;;;;;;6.73;3.23;;;24.60;99.90;;;;;;5032959;28;20493;-73
2022/05/19 09:17:11;;;;;;;4.10;3.17;;;24.50;99.90;;;;;;5031665;28;20492;-72
2022/05/19 09:19:41;;;;;;;4.73;3.50;;;24.50;99.90;;;;;;5032002;28;20449;-73
2022/05/19 09:22:10;;;;;;;5.47;3.50;;;24.60;99.90;;;;;;5032923;28;20473;-72
2022/05/19 09:24:38;;;;;;;8.27;3.07;;;24.60;99.90;;;;;;5032721;28;20446;-73
2022/05/19 09:27:06;;;;;;;5.90;3.27;;;24.70;99.90;;;;;;5032768;28;20798;-73
2022/05/19 09:29:36;;;;;;;5.10;3.10;;;24.80;99.90;;;;;;5033428;28;20450;-72
2022/05/19 09:32:12;;;;;;;4.23;2.60;;;24.90;99.90;;;;;;5033041;28;20516;-72
2022/05/19 09:34:41;;;;;;;4.67;3.30;;;25.00;99.90;;;;;;5032183;28;20476;-72
2022/05/19 09:37:11;;;;;;;9.60;3.30;;;25.20;99.90;;;;;;5033191;28;20454;-73
2022/05/19 09:39:51;;;;;;;3.43;3.03;;;25.50;99.90;;;;;;5032889;28;20511;-73
2022/05/19 09:42:24;;;;;;;4.93;3.03;;;25.50;99.90;;;;;;5032996;28;20471;-73
2022/05/19 09:44:55;;;;;;;3.63;2.73;;;25.40;99.90;;;;;;5032218;28;20531;-73
2022/05/19 09:47:31;;;;;;;2.83;2.63;;;25.50;99.90;;;;;;5033117;28;20459;-73
2022/05/19 09:50:05;;;;;;;10.70;2.83;;;25.50;99.90;;;;;;5032869;28;20437;-73
2022/05/19 09:52:33;;;;;;;3.63;3.03;;;25.30;99.90;;;;;;5032850;28;20534;-73
2022/05/19 09:55:03;;;;;;;4.03;2.80;;;25.40;99.90;;;;;;5032210;28;20808;-73
2022/05/19 09:57:39;;;;;;;3.77;3.40;;;25.40;99.90;;;;;;5012563;28;20453;-73
2022/05/19 10:00:12;;;;;;;6.60;2.80;;;25.60;99.90;;;;;;5013183;28;20457;-73
2022/05/19 10:02:46;;;;;;;6.43;2.77;;;25.70;99.90;;;;;;5012958;28;20470;-73
2022/05/19 10:05:25;;;;;;;7.23;3.00;;;26.00;99.90;;;;;;5012342;28;20447;-72
2022/05/19 10:07:57;;;;;;;8.17;2.87;;;26.20;99.90;;;;;;5012166;28;20981;-73
2022/05/19 10:10:26;;;;;;;3.47;2.57;;;26.40;99.90;;;;;;5012628;28;20454;-73
2022/05/19 10:12:57;;;;;;;6.53;2.70;;;26.50;99.90;;;;;;5011979;28;20481;-73
2022/05/19 10:15:30;;;;;;;3.93;2.53;;;26.60;99.90;;;;;;5011809;28;20580;-73
2022/05/19 10:18:05;;;;;;;7.07;3.17;;;26.50;99.90;;;;;;5026631;28;20463;-73
2022/05/19 10:20:37;;;;;;;3.40;2.83;;;26.30;99.90;;;;;;5032139;28;20503;-73
2022/05/19 10:23:26;;;;;;;4.97;2.77;;;26.40;99.90;;;;;;5032060;28;20476;-73
2022/05/19 10:26:11;;;;;;;12.83;3.30;;;26.40;99.90;;;;;;5032072;28;20540;-73
2022/05/19 10:31:45;;;;;;;3.03;2.50;;;26.30;99.90;;;;;;5031451;28;20448;-72
2022/05/19 10:34:31;;;;;;;3.10;2.73;;;26.20;99.90;;;;;;5031129;28;20894;-73
2022/05/19 10:37:06;;;;;;;7.90;2.80;;;26.00;99.90;;;;;;5031946;28;20851;-72
2022/05/19 10:39:52;;;;;;;3.73;3.10;;;25.90;99.90;;;;;;5031693;28;20449;-73
2022/05/19 10:42:27;;;;;;;10.63;2.90;;;25.70;99.90;;;;;;5032087;28;20816;-73
2022/05/19 10:45:26;;;;;;;3.10;2.80;;;25.80;99.90;;;;;;5031032;28;20459;-73
2022/05/19 10:48:06;;;;;;;3.43;2.70;;;25.90;99.90;;;;;;5031751;28;20462;-73
2022/05/19 10:50:36;;;;;;;4.77;3.07;;;26.20;99.90;;;;;;5031912;28;20445;-73
2022/05/19 10:53:33;;;;;;;6.40;2.90;;;26.40;99.90;;;;;;5031366;28;20477;-73
2022/05/19 10:56:14;;;;;;;5.00;3.00;;;26.60;99.90;;;;;;5029034;28;20489;-73
2022/05/19 10:58:55;;;;;;;3.93;2.73;;;27.00;99.90;;;;;;5031449;28;20451;-73
2022/05/19 11:01:41;;;;;;;5.03;3.23;;;26.80;99.90;;;;;;5031488;28;20476;-73
2022/05/19 11:04:29;;;;;;;3.60;3.07;;;26.60;99.90;;;;;;5031256;28;20475;-73
2022/05/19 11:07:13;;;;;;;5.17;3.47;;;26.50;99.90;;;;;;5030712;28;20938;-73
2022/05/19 11:09:49;;;;;;;6.60;3.30;;;26.50;99.90;;;;;;5029656;28;20453;-73
2022/05/19 11:12:23;;;;;;;3.83;2.77;;;26.50;99.90;;;;;;5030504;28;20534;-73
2022/05/19 11:15:02;;;;;;;3.30;2.87;;;26.40;99.90;;;;;;5030772;28;20860;-73
2022/05/19 11:17:42;;;;;;;7.40;3.13;;;26.20;99.90;;;;;;5030243;28;20503;-73
2022/05/19 11:20:12;;;;;;;3.97;3.47;;;26.50;99.90;;;;;;5031131;28;20528;-73
2022/05/19 11:22:42;;;;;;;3.50;3.20;;;26.40;99.90;;;;;;5031440;28;20473;-73
2022/05/19 11:28:03;;;;;;;4.80;3.10;;;26.70;99.90;;;;;;5031482;28;20859;-73
2022/05/19 11:30:34;;;;;;;10.20;2.90;;;26.90;99.90;;;;;;5030953;28;20453;-73
2022/05/19 11:33:05;;;;;;;4.90;2.53;;;27.00;99.90;;;;;;5031134;28;20476;-72
2022/05/19 11:35:38;;;;;;;6.63;3.30;;;27.20;99.90;;;;;;5030915;28;20515;-73
2022/05/19 11:38:16;;;;;;;5.47;3.10;;;27.30;99.90;;;;;;5031264;28;20500;-73
2022/05/19 11:40:47;;;;;;;5.47;3.10;;;27.50;99.90;;;;;;5030997;28;20875;-73
2022/05/19 11:43:19;;;;;;;5.73;3.20;;;27.60;99.90;;;;;;5031516;28;20527;-72
2022/05/19 11:45:50;;;;;;;5.30;3.00;;;27.60;99.90;;;;;;5035135;28;20458;-73
2022/05/19 11:57:05;;;;;;;5.17;3.07;;;27.50;99.90;;;;;;5034875;28;20960;-72
2022/05/19 11:59:32;;;;;;;4.20;3.40;;;27.50;99.90;;;;;;5034458;28;20475;-73
2022/05/19 12:01:59;;;;;;;3.27;2.97;;;27.60;99.90;;;;;;5034700;28;20893;-73
2022/05/19 12:04:29;;;;;;;11.30;3.10;;;27.80;99.90;;;;;;5034326;28;20449;-72
2022/05/19 12:07:04;;;;;;;6.37;3.00;;;27.70;99.90;;;;;;5034267;28;20454;-73
2022/05/19 12:09:35;;;;;;;3.70;3.07;;;27.60;99.90;;;;;;5033050;28;20855;-73
2022/05/19 12:12:04;;;;;;;3.27;3.07;;;27.60;99.90;;;;;;5033972;28;20477;-72
2022/05/19 12:14:38;;;;;;;4.63;2.97;;;27.60;99.90;;;;;;5033298;28;20997;-73
2022/05/19 12:17:17;;;;;;;6.93;3.40;;;27.80;99.90;;;;;;5033107;28;20449;-73
2022/05/19 12:19:47;;;;;;;3.40;3.10;;;27.80;99.90;;;;;;5034436;28;20452;-73
2022/05/19 12:22:25;;;;;;;5.77;2.87;;;27.80;99.90;;;;;;5034426;28;20480;-73
2022/05/19 12:24:54;;;;;;;5.93;3.40;;;27.80;99.90;;;;;;5034078;28;20510;-73
2022/05/19 12:27:23;;;;;;;5.53;3.07;;;27.90;99.90;;;;;;5034350;28;20452;-73
2022/05/19 12:30:00;;;;;;;4.47;3.63;;;27.90;99.90;;;;;;5034143;28;20556;-73
2022/05/19 12:32:35;;;;;;;5.83;3.40;;;28.00;99.90;;;;;;5033872;28;20511;-73
2022/05/19 12:35:05;;;;;;;6.13;3.30;;;27.90;99.90;;;;;;5033769;28;20997;-73
2022/05/19 12:37:35;;;;;;;5.13;3.30;;;27.80;99.90;;;;;;5034360;28;20453;-73
2022/05/19 12:40:23;;;;;;;6.30;3.57;;;27.70;99.90;;;;;;5034129;28;20507;-73
2022/05/19 12:42:51;;;;;;;7.30;3.87;;;27.50;99.90;;;;;;5034024;28;20472;-73
2022/05/19 12:45:21;;;;;;;5.47;3.67;;;27.30;99.90;;;;;;5033493;28;20456;-73
2022/05/19 12:47:57;;;;;;;8.30;3.90;;;27.20;99.90;;;;;;5034313;28;20445;-73
2022/05/19 12:50:26;;;;;;;6.53;4.60;;;27.30;99.90;;;;;;5014037;28;20948;-73
2022/05/19 12:53:13;;;;;;;8.03;3.77;;;27.30;99.90;;;;;;5013997;28;20528;-73
2022/05/19 12:55:59;;;;;;;7.63;3.20;;;27.90;99.90;;;;;;5018808;28;20988;-73
2022/05/19 12:58:46;;;;;;;7.57;3.67;;;28.60;99.90;;;;;;5033957;28;20449;-73
2022/05/19 13:01:14;;;;;;;5.33;3.67;;;28.80;99.90;;;;;;5033612;28;20659;-73
2022/05/19 13:03:43;;;;;;;12.73;4.63;;;29.00;99.90;;;;;;5032959;28;20511;-73
2022/05/19 13:06:13;;;;;;;10.60;4.10;;;29.20;99.90;;;;;;5033178;28;20451;-73
2022/05/19 13:08:43;;;;;;;7.90;4.10;;;29.30;99.90;;;;;;5032352;28;20449;-73
2022/05/19 13:11:13;;;;;;;5.17;3.70;;;29.10;99.90;;;;;;5033284;28;20449;-73
2022/05/19 13:13:43;;;;;;;8.53;4.07;;;29.00;99.90;;;;;;5032165;28;20457;-73
2022/05/19 13:16:17;;;;;;;5.60;3.77;;;28.80;99.90;;;;;;5031458;28;20913;-73